Hamdan Juma

Scout - Al Wasl
23 Apr 2028
Sonntag
Verarbeitung

Persönlichkeit

Anpassungsfähigkeit (13) Ehrgeiz (11) Kontroverse (17) Loyalität (1) Druck (20) Professionalität (12) Fairness (11) Temperament (4)

Profil

Trainerstil Demokratisch
Lizenz Nationale A
Entschlossenheit 10
Menschenführung 5
Motivation 9
Disziplin 7
Arbeitszufriedenheit
100%
Ermüdung
0%
Rolle Scout
Gehalt 42.7K p/W
Vertrag 14.03.2030

Leistung

Verhalten Gut
Trainingseffektivität
43%
Spielerentwicklung
45%
Verletzungsprävention
65%
Taktische Umsetzung
40%

Letzte Ereignisse

Nahm an einer Scouting-Besprechung teil jetzt
Nahm an einer Scouting-Besprechung teil 7T her
Nahm an einer Scouting-Besprechung teil 7T her
Empfahl ein Transferziel 7T her
Nahm an einer Scouting-Besprechung teil 14T her
Nahm an einer Scouting-Besprechung teil 14T her
Empfahl ein Transferziel 14T her
Empfahl ein Transferziel 21T her

Aktuell beobachtet

103
Spieler Verein Status Fähigkeit Vertrauen Beobachtet Zuletzt beobachtet Letzte Stimme
Josh Nichols Oldham Athletic Aktiv 114 / 121 40% 4 23.01.2028 -
Matvey Bardachev Zenit Aktiv 113 / 113 40% 3 20.01.2028 -
Matias Siltanen Malmo FF Aktiv 124 / 138 40% 3 20.01.2028 -
Nazareno Roselli Defensa y Justicia Aktiv 113 / 127 40% 3 20.01.2028 -
Vinícius Lira São Paulo Aktiv 124 / 131 40% 2 19.01.2028 -
Daniel Banjaqui Benfica Aktiv 122 / 133 40% 2 19.01.2028 -
Edvard Pettersen Sandefjord Aktiv 105 / 120 40% 5 18.01.2028 -
Amir Mohammad Razzaghinia Esteghlal Aktiv 113 / 117 40% 1 18.01.2028 -
Martim Cunha Porto Aktiv 110 / 116 40% 4 17.01.2028 -
Nahuel Leivas Montevideo City Torque Aktiv 101 / 104 40% 1 17.01.2028 -
Agustín De la Cuesta Racing Aktiv 107 / 113 40% 4 24.12.2027 -
Victor Hernandez Santa Fe Aktiv 118 / 133 40% 9 17.12.2027 -
Diego Vargas Universidad de Concepcion Aktiv 100 / 95 40% 4 17.12.2027 -
Joel Ezra Enyimba Aktiv 91 / 106 40% 5 13.12.2027 -
Björn Hedlöf Helsingborg Aktiv 87 / 97 40% 3 10.12.2027 -
Gonçalo Oliveira Benfica Aktiv 117 / 127 40% 4 10.12.2027 -
Tiago Freitas Benfica Aktiv 118 / 128 40% 2 08.12.2027 -
Vince Osuji Stabaek Aktiv 106 / 117 40% 2 07.12.2027 -
Colin Guske Orlando City Aktiv 91 / 97 40% 3 06.12.2027 -
Kieran Morgan Queens Park Rangers Aktiv 116 / 123 40% 1 06.12.2027 -
Mohamed Moussa Koïta Mathare United Aktiv 101 / 100 40% 4 03.12.2027 -
Riquelme Thompson-Jones Accrington Stanley Aktiv 114 / 113 40% 1 03.12.2027 -
Igor Felisberto Sport Recife Aktiv 99 / 109 40% 1 03.12.2027 -
Noa Mikić Imotski Aktiv 119 / 121 40% 1 01.12.2027 -
Josh Torquato FC Dallas Aktiv 88 / 93 40% 3 30.11.2027 -
Juan Manuel Villalba Tigre Aktiv 122 / 120 40% 2 30.11.2027 -
Ulises Giménez River Plate Aktiv 119 / 125 40% 2 29.11.2027 -
Ianis Marin Pandurii Aktiv 96 / 94 40% 2 29.11.2027 -
Mohamed Bolivar Barranquilla Aktiv 101 / 101 40% 1 25.11.2027 -
Jair Collahuazo Kudrivka Aktiv 111 / 111 40% 2 22.11.2027 -
Mikkel Hope Haugesund Aktiv 108 / 103 40% 2 22.11.2027 -
Thulani Manyama SuperSport United Aktiv 120 / 122 40% 4 21.11.2027 -
Omid Moharrami Padideh Aktiv 96 / 104 40% 1 15.11.2027 -
Itumeleng Jali Spezia Aktiv 113 / 116 40% 1 05.11.2027 -
Godwin Oham Warri Wolves Aktiv 98 / 85 40% 1 03.11.2027 -
Omar Abdelrahim Al Ahly Aktiv 92 / 100 40% 1 06.10.2027 -
Issa Yusuf Shooting Stars Aktiv 95 / 98 40% 1 06.09.2027 -
Tommaso Cecotti Carpi Aktiv 105 / 101 40% 1 26.07.2027 -
Alexandro Maidana Eibar Aktiv 120 / 123 40% 1 30.06.2027 -
Maxim Radchenko Rostov Aktiv 90 / 93 40% 1 30.06.2027 -
Ivan Giraldo Valencia Aktiv 127 / 129 40% 1 30.06.2027 -
Edwin Asamoah Berekum Chelsea Aktiv 91 / 76 40% 1 15.06.2027 -
Leandro Martins Benfica Aktiv 89 / 99 40% 1 15.06.2027 -
Malik Mothersille Stockport County Aktiv 123 / 110 40% 2 26.05.2027 -
Lewis Bate Stockport County Aktiv 123 / 126 40% 2 26.05.2027 -
Bali Mumba Huddersfield Town Aktiv 125 / 116 40% 1 26.05.2027 -
Tyler Goodrham Oxford United Aktiv 114 / 121 40% 2 24.05.2027 -
Oston O'runov Persepolis Aktiv 121 / 117 40% 1 24.05.2027 -
Sonny Carey Charlton Athletic Aktiv 118 / 122 40% 1 24.05.2027 -
Oswin Appollis Orlando Pirates Aktiv 121 / 129 40% 4 23.05.2027 -
Mohau Nkota Al-Ettifaq Aktiv 130 / 121 40% 2 23.05.2027 -
Darragh Burns Grimsby Town Aktiv 106 / 106 40% 2 22.05.2027 -
Tyreece Campbell Charlton Athletic Aktiv 114 / 127 40% 2 22.05.2027 -
Dale Taylor Blackpool Aktiv 119 / 107 40% 2 20.05.2027 -
Marouan Azarkan Al Nasr Aktiv 131 / 125 40% 2 20.05.2027 -
Ibrahim Bayesh Al Dhafra Aktiv 125 / 124 40% 3 17.05.2027 -
Joel Bagan Cardiff City Aktiv 120 / 121 40% 1 17.05.2027 -
Luca Connell Barnsley Aktiv 107 / 107 40% 1 16.05.2027 -
Declan Frith Peterborough United Aktiv 116 / 110 40% 1 15.05.2027 -
David Turnbull Cardiff City Aktiv 117 / 118 40% 2 13.05.2027 -
Othmane Maamma Watford Aktiv 128 / 126 40% 1 13.05.2027 -
Andre Brooks Sheffield United Aktiv 129 / 123 40% 1 13.05.2027 -
Sam Bell Bristol City Aktiv 119 / 123 40% 1 12.05.2027 -
Christopher Bonsu Baah Al-Qadisiyah Aktiv 135 / 122 40% 3 09.05.2027 -
Stiven Shpendi Empoli Aktiv 123 / 118 40% 1 09.05.2027 -
Alex Robertson Cardiff City Aktiv 122 / 118 40% 2 05.05.2027 -
Tony Springett Cheltenham Town Aktiv 113 / 102 40% 2 04.05.2027 -
Ar'jany Martha Rotherham United Aktiv 101 / 116 40% 3 03.05.2027 -
Zeidane Inoussa Swansea City Aktiv 125 / 122 40% 1 03.05.2027 -
Sam Greenwood Bristol City Aktiv 122 / 125 40% 1 29.04.2027 -
Alex Lowry Wycombe Wanderers Aktiv 110 / 116 40% 1 29.04.2027 -
Xavier Amaechi Plymouth Argyle Aktiv 106 / 112 40% 1 26.04.2027 -
Pelle Mattsson Norwich City Aktiv 125 / 129 40% 1 22.04.2027 -
Milson Al Jazira Aktiv 127 / 128 40% 1 22.04.2027 -
Saleh Abu Al-Shamat Al-Ahli Aktiv 116 / 119 40% 4 11.04.2027 -
Bradley Zwane SuperSport United Aktiv 118 / 120 40% 2 11.04.2027 -
Harvey Knibbs Charlton Athletic Aktiv 105 / 114 40% 1 11.04.2027 -
Merwane Khelif MC Alger Aktiv 119 / 116 40% 1 08.04.2027 -
Mahamadou Doumbia Al-Ittihad Aktiv 133 / 129 40% 4 06.04.2027 -
Mohanad Ali Dibba Aktiv 121 / 111 62% 1 01.01.2027 Befürworten
Yacine Adli Al-Shabab Aktiv 136 / 135 40% 2 31.12.2026 -
Mihai Lixandru Al-Fateh Aktiv 107 / 110 40% 2 30.12.2026 -
Reda Khadra Qarabag Aktiv 133 / 139 40% 2 30.12.2026 -
Mamadou Coulibaly Al Jazira Aktiv 126 / 130 40% 2 29.12.2026 -
Lebogang Manyama SuperSport United Aktiv 127 / 120 40% 2 25.12.2026 -
Musab Al-Juwayr Al-Qadisiyah Aktiv 124 / 128 40% 1 25.12.2026 -
Zaydou Youssouf Al-Fateh Aktiv 127 / 123 40% 1 20.12.2026 -
Aiman Yahya Al-Nassr Aktiv 114 / 119 40% 3 19.12.2026 -
Abdullah Al Shamsi Al Shabab Aktiv 109 / 109 40% 2 19.12.2026 -
Themba Williams Ajax Cape Town Aktiv 107 / 125 40% 2 17.12.2026 -
Nawaf Bu Washl Al-Nassr Aktiv 108 / 113 40% 2 16.12.2026 -
Ali Majrashi Al-Ahli Aktiv 121 / 125 40% 2 09.12.2026 -
Peter Valjent FK Senica Aktiv 110 / 126 40% 2 09.12.2026 Mehr Infos nötig
Bongani Zungu Ajax Cape Town Aktiv 117 / 122 40% 1 07.12.2026 -
Ziyad Al-Johani Al-Ahli Aktiv 109 / 119 40% 1 28.11.2026 -
Juan Pablo Gallego Fehervar Aktiv 125 / 106 40% 1 27.11.2026 -
Ahmed Al-Ghamdi Al-Ittihad Aktiv 97 / 101 40% 2 21.11.2026 -
Abdulmalik Al-Jaber Al-Nassr Aktiv 112 / 105 40% 1 20.11.2026 -
Imad Riahi Najran Aktiv 111 / 101 40% 1 20.11.2026 -
Marin Petkov Al-Taawoun Aktiv 120 / 129 40% 1 18.11.2026 -
Armstrong Oko-Flex Levski Aktiv 105 / 108 40% 1 03.11.2026 -
Dhari Al-Anazi Al-Shabab Aktiv 105 / 115 40% 1 02.11.2026 -
Hamad Al Bloushi Al Shaab Aktiv 106 / 118 58% 1 17.08.2026 -